Flagler, Colorado
Current Conditions -  °F | °C
As of 3:28 PM on Monday 24 Nov 2014 (Local Time) from KLIC Reporting Station
Few Clouds Few Clouds  
Wind Chill: 18°   Ceiling: Unl
Heat Index: 32°   Visibility: 10mi
Dew Point: 17°   Wind: 28mph
Humidity: 54%   Direction: 360°N
Pressure: 30.04"   Gusts: 43mph
Location:  39.29°N, 103.07°W
Report Text: KLIC 242228Z AUTO 36024G37KT 10SM FEW026 00/M08 A3004 RMK AO2 PK WND 36037/2219 SNE04 P0000 T00001083
Loading
Personal Weather Stations






























Interactive Weather Map New forecast layout! Learn more

10-Day Weather Forecast

Advertisements
Track Severe Weather on mobile